createdAt,value
2018-02-01T00:01:19.804Z,99452.07
2018-02-01T00:03:47.581Z,99460.42
2018-02-01T00:06:15.444Z,99467.30
2018-02-01T00:08:43.203Z,99479.02
2018-02-01T00:11:11.032Z,99478.00
2018-02-01T00:13:38.860Z,99480.06
2018-02-01T00:16:06.713Z,99467.86
2018-02-01T00:18:34.567Z,99474.73
2018-02-01T00:21:02.336Z,99472.49
2018-02-01T00:23:33.216Z,99473.63
2018-02-01T00:26:01.009Z,99459.97
2018-02-01T00:28:28.842Z,99462.91
2018-02-01T00:30:56.604Z,99467.40
2018-02-01T00:33:24.412Z,99460.71
2018-02-01T00:36:09.019Z,99462.22
2018-02-01T00:38:36.922Z,99454.91
2018-02-01T00:41:04.658Z,99449.63
2018-02-01T00:43:32.560Z,99444.81
2018-02-01T00:46:00.327Z,99448.39
2018-02-01T00:48:28.124Z,99450.51
2018-02-01T00:50:55.979Z,99454.64
2018-02-01T00:53:23.798Z,99465.05
2018-02-01T00:55:51.582Z,99461.92
2018-02-01T00:58:21.700Z,99469.30
2018-02-01T01:00:49.523Z,99465.82
2018-02-01T01:03:17.320Z,99459.13
2018-02-01T01:17:36.096Z,99475.53
2018-02-01T01:20:03.972Z,99481.30
2018-02-01T01:22:31.733Z,99479.69
2018-02-01T01:24:59.584Z,99483.44
2018-02-01T01:27:27.380Z,99482.92
2018-02-01T01:29:55.239Z,99485.13
2018-02-01T01:32:23.023Z,99484.81
2018-02-01T01:34:50.898Z,99485.72
2018-02-01T01:37:18.699Z,99484.13
2018-02-01T01:39:46.480Z,99453.21
2018-02-01T01:42:14.284Z,99465.01
2018-02-01T01:44:42.035Z,99472.91
2018-02-01T01:47:09.916Z,99472.53
2018-02-01T01:49:37.721Z,99478.00
2018-02-01T01:52:05.612Z,99469.73
2018-02-01T01:54:33.416Z,99469.84
2018-02-01T01:57:01.281Z,99468.53
2018-02-01T01:59:29.049Z,99468.77
2018-02-01T02:01:56.862Z,99469.77
2018-02-01T02:04:24.665Z,99466.30
2018-02-01T02:06:52.510Z,99472.85
2018-02-01T02:09:20.312Z,99467.39
2018-02-01T02:11:48.216Z,99464.92
2018-02-01T02:14:16.113Z,99463.92
2018-02-01T02:16:43.968Z,99460.45
2018-02-01T02:19:11.843Z,99449.95
2018-02-01T02:21:39.665Z,99452.07
2018-02-01T02:24:07.479Z,99456.73
2018-02-01T02:26:35.225Z,99455.36
2018-02-01T02:29:03.129Z,99455.39
2018-02-01T02:31:31.004Z,99461.91
2018-02-01T02:33:58.858Z,99460.07
2018-02-01T02:36:26.718Z,99455.16
2018-02-01T02:38:54.548Z,99455.23
2018-02-01T02:41:22.368Z,99454.58
2018-02-01T02:43:50.201Z,99454.78
2018-02-01T02:46:18.011Z,99449.30
2018-02-01T02:48:45.836Z,99452.13
2018-02-01T02:51:13.640Z,99455.59
2018-02-01T02:53:41.497Z,99455.76
2018-02-01T02:56:09.291Z,99452.31
2018-02-01T02:58:37.024Z,99456.27
2018-02-01T03:01:04.857Z,99458.09
2018-02-01T03:03:32.649Z,99456.91
2018-02-01T03:06:00.481Z,99463.12
2018-02-01T03:08:28.343Z,99460.56
2018-02-01T03:10:56.165Z,99460.21
2018-02-01T03:13:23.979Z,99464.77
2018-02-01T03:15:51.863Z,99461.53
2018-02-01T03:18:19.664Z,99457.88
2018-02-01T03:20:47.489Z,99458.98
2018-02-01T03:23:15.252Z,99456.27
2018-02-01T03:25:43.155Z,99457.00
2018-02-01T03:28:10.957Z,99454.39
2018-02-01T03:30:38.779Z,99465.39
2018-02-01T03:33:06.618Z,99461.61
2018-02-01T03:35:34.493Z,99452.83
2018-02-01T03:38:02.312Z,99462.67
2018-02-01T03:40:30.099Z,99452.69
2018-02-01T03:42:58.044Z,99458.50
2018-02-01T03:45:25.896Z,99456.28
2018-02-01T03:47:53.724Z,99461.11
2018-02-01T03:50:21.534Z,99458.06
2018-02-01T03:52:49.374Z,99460.53
2018-02-01T03:55:17.157Z,99461.93
2018-02-01T03:57:44.939Z,99468.95
2018-02-01T04:00:12.736Z,99467.25
2018-02-01T04:02:40.556Z,99468.51
2018-02-01T04:05:08.355Z,99470.75
2018-02-01T04:07:36.168Z,99467.76
2018-02-01T04:10:04.034Z,99465.06
2018-02-01T04:12:31.854Z,99459.99
2018-02-01T04:14:59.620Z,99471.50
2018-02-01T04:17:27.416Z,99474.24
2018-02-01T04:19:55.208Z,99471.80
2018-02-01T04:22:22.981Z,99463.02
2018-02-01T04:24:50.805Z,99464.49
2018-02-01T04:27:18.566Z,99467.76
2018-02-01T04:29:46.446Z,99464.42
2018-02-01T04:32:14.266Z,99468.55
2018-02-01T04:34:42.130Z,99467.39
2018-02-01T04:37:09.902Z,99466.84
2018-02-01T04:39:37.714Z,99471.77
2018-02-01T04:42:06.560Z,99471.81
2018-02-01T04:44:34.396Z,99477.19
2018-02-01T04:47:02.167Z,99479.77
2018-02-01T04:49:29.977Z,99479.52
2018-02-01T04:51:57.821Z,99476.38
2018-02-01T04:54:25.694Z,99475.42
2018-02-01T04:56:53.575Z,99485.00
2018-02-01T04:59:21.488Z,99467.53
2018-02-01T05:01:49.307Z,99479.29
2018-02-01T05:04:17.133Z,99478.98
2018-02-01T05:06:44.991Z,99474.70
2018-02-01T05:09:12.799Z,99491.20
2018-02-01T05:11:40.691Z,99494.75
2018-02-01T05:14:08.588Z,99499.47
2018-02-01T05:16:36.470Z,99493.39
2018-02-01T05:19:04.350Z,99501.75
2018-02-01T05:21:32.189Z,99500.91
2018-02-01T05:24:00.065Z,99510.00
2018-02-01T05:26:28.022Z,99509.40
2018-02-01T05:28:55.897Z,99516.33
2018-02-01T05:31:23.750Z,99507.11
2018-02-01T05:33:51.649Z,99519.24
2018-02-01T05:36:19.468Z,99518.53
2018-02-01T05:38:47.243Z,99525.02
2018-02-01T05:41:15.172Z,99523.60
2018-02-01T05:43:42.956Z,99525.36
2018-02-01T05:46:10.787Z,99519.64
2018-02-01T05:48:38.609Z,99523.04
2018-02-01T05:51:06.433Z,99533.34
2018-02-01T05:53:34.292Z,99526.78
2018-02-01T05:56:02.086Z,99534.49
2018-02-01T05:58:29.950Z,99531.75
2018-02-01T06:00:57.739Z,99527.00
2018-02-01T06:03:25.640Z,99540.97
2018-02-01T06:05:53.434Z,99538.64
2018-02-01T06:08:21.300Z,99536.31
2018-02-01T06:10:49.108Z,99529.34
2018-02-01T06:13:16.969Z,99534.28
2018-02-01T06:15:44.715Z,99540.73
2018-02-01T06:18:13.139Z,99536.11
2018-02-01T06:20:40.983Z,99534.44
2018-02-01T06:23:08.758Z,99534.44
2018-02-01T06:25:36.605Z,99544.55
2018-02-01T06:28:04.390Z,99547.55
2018-02-01T06:30:32.330Z,99548.72
2018-02-01T06:33:00.208Z,99548.80
2018-02-01T06:35:28.111Z,99546.59
2018-02-01T06:37:56.003Z,99554.20
2018-02-01T06:40:23.855Z,99550.16
2018-02-01T06:42:51.737Z,99545.84
2018-02-01T06:45:19.637Z,99546.97
2018-02-01T06:47:47.499Z,99544.11
2018-02-01T06:50:15.413Z,99545.38
2018-02-01T06:52:43.252Z,99551.13
2018-02-01T06:55:11.162Z,99552.52
2018-02-01T06:57:39.026Z,99549.50
2018-02-01T07:00:06.921Z,99548.80
2018-02-01T07:02:34.752Z,99547.44
2018-02-01T07:05:02.622Z,99548.25
2018-02-01T07:07:30.493Z,99556.61
2018-02-01T07:09:58.348Z,99558.36
2018-02-01T07:12:26.272Z,99563.84
2018-02-01T07:14:54.089Z,99561.39
2018-02-01T07:17:21.943Z,99564.56
2018-02-01T07:19:49.805Z,99561.81
2018-02-01T07:22:17.722Z,99565.18
2018-02-01T07:24:45.571Z,99564.48
2018-02-01T07:27:13.447Z,99568.29
2018-02-01T07:29:41.281Z,99567.20
2018-02-01T07:32:09.201Z,99569.94
2018-02-01T07:34:37.068Z,99566.50
2018-02-01T07:37:04.991Z,99569.94
2018-02-01T07:39:32.892Z,99564.58
2018-02-01T07:42:00.795Z,99571.11
2018-02-01T07:44:28.612Z,99575.20
2018-02-01T07:47:01.053Z,99574.20
2018-02-01T07:49:30.312Z,99566.66
2018-02-01T07:51:58.202Z,99571.02
2018-02-01T07:54:26.098Z,99575.67
2018-02-01T07:56:53.933Z,99578.00
2018-02-01T07:59:21.823Z,99576.37
2018-02-01T08:01:49.663Z,99581.38
2018-02-01T08:04:17.534Z,99580.36
2018-02-01T08:06:45.394Z,99579.55
2018-02-01T08:09:13.462Z,99580.84
2018-02-01T08:11:41.365Z,99586.65
2018-02-01T08:14:09.273Z,99587.66
2018-02-01T08:16:37.335Z,99593.48
2018-02-01T08:19:05.233Z,99586.58
2018-02-01T08:21:33.405Z,99588.02
2018-02-01T08:24:01.645Z,99580.36
2018-02-01T08:26:29.832Z,99583.77
2018-02-01T08:28:57.749Z,99588.60
2018-02-01T08:31:25.669Z,99587.53
2018-02-01T08:33:53.683Z,99572.98
2018-02-01T08:36:21.666Z,99581.63
2018-02-01T08:38:49.607Z,99581.87
2018-02-01T08:41:17.782Z,99573.61
2018-02-01T08:43:45.859Z,99579.91
2018-02-01T08:46:13.959Z,99572.22
2018-02-01T08:48:41.841Z,99576.03
2018-02-01T08:51:09.894Z,99581.56
2018-02-01T08:53:37.767Z,99573.82
2018-02-01T08:56:05.916Z,99583.06
2018-02-01T08:58:33.771Z,99581.63
2018-02-01T09:01:01.689Z,99586.00
2018-02-01T09:03:29.528Z,99594.31
2018-02-01T09:05:57.464Z,99582.87
2018-02-01T09:08:25.325Z,99586.25
2018-02-01T09:10:53.367Z,99584.26
2018-02-01T09:13:21.240Z,99593.60
2018-02-01T09:15:49.311Z,99582.75
2018-02-01T09:18:17.344Z,99583.92
2018-02-01T09:20:45.445Z,99587.31
2018-02-01T09:23:13.536Z,99592.05
2018-02-01T09:25:41.680Z,99589.84
2018-02-01T09:28:09.614Z,99598.34
2018-02-01T09:30:37.539Z,99608.90
2018-02-01T09:33:05.436Z,99594.88
2018-02-01T09:35:33.357Z,99596.14
2018-02-01T09:38:01.260Z,99597.94
2018-02-01T09:40:29.100Z,99595.20
2018-02-01T09:42:57.012Z,99589.50
2018-02-01T09:45:24.880Z,99600.34
2018-02-01T09:47:52.733Z,99598.78
2018-02-01T09:50:20.631Z,99593.21
2018-02-01T09:52:48.507Z,99604.61
2018-02-01T09:55:16.660Z,99602.08
2018-02-01T09:57:44.711Z,99608.92
2018-02-01T10:00:12.946Z,99610.16
2018-02-01T10:02:41.077Z,99612.28
2018-02-01T10:05:08.956Z,99619.22
2018-02-01T10:07:36.863Z,99614.13
2018-02-01T10:10:04.781Z,99613.37
2018-02-01T10:12:32.732Z,99618.06
2018-02-01T10:15:00.850Z,99619.52
2018-02-01T10:17:28.724Z,99618.09
2018-02-01T10:19:56.642Z,99622.22
2018-02-01T10:22:24.608Z,99620.52
2018-02-01T10:24:52.526Z,99626.67
2018-02-01T10:27:20.364Z,99623.70
2018-02-01T10:29:48.193Z,99626.81
2018-02-01T10:32:15.971Z,99624.09
2018-02-01T10:34:43.877Z,99629.77
2018-02-01T10:37:11.903Z,99632.52
2018-02-01T10:39:39.822Z,99626.16
2018-02-01T10:42:07.634Z,99620.73
2018-02-01T10:44:35.605Z,99617.05
2018-02-01T10:47:03.535Z,99611.47
2018-02-01T10:49:31.380Z,99614.83
2018-02-01T10:51:59.297Z,99615.48
2018-02-01T10:54:27.124Z,99612.67
2018-02-01T10:56:54.997Z,99619.87
2018-02-01T10:59:22.761Z,99615.97
2018-02-01T11:01:50.601Z,99618.00
2018-02-01T11:04:18.372Z,99617.11
2018-02-01T11:06:46.245Z,99611.23
2018-02-01T11:09:14.077Z,99605.75
2018-02-01T11:11:41.973Z,99614.81
2018-02-01T11:14:10.437Z,99612.70
2018-02-01T11:16:38.264Z,99611.39
2018-02-01T11:19:06.118Z,99613.98
2018-02-01T11:21:33.934Z,99619.06
2018-02-01T11:24:01.848Z,99612.95
2018-02-01T11:26:29.732Z,99607.34
2018-02-01T11:28:57.580Z,99611.72
2018-02-01T11:31:25.494Z,99617.30
2018-02-01T11:33:53.339Z,99615.74
2018-02-01T11:36:21.302Z,99600.67
2018-02-01T11:38:49.102Z,99600.16
2018-02-01T11:41:16.970Z,99609.95
2018-02-01T11:43:44.812Z,99613.20
2018-02-01T11:46:12.676Z,99609.59
2018-02-01T11:48:40.517Z,99600.84
2018-02-01T11:51:08.431Z,99606.30
2018-02-01T11:53:36.279Z,99611.88
2018-02-01T11:56:04.136Z,99604.77
2018-02-01T11:58:31.992Z,99595.20
2018-02-01T12:00:59.879Z,99604.84
2018-02-01T12:03:27.748Z,99604.91
2018-02-01T12:05:55.694Z,99588.08
2018-02-01T12:08:23.611Z,99610.14
2018-02-01T12:10:51.455Z,99602.32
2018-02-01T12:13:19.305Z,99597.98
2018-02-01T12:15:47.136Z,99577.38
2018-02-01T12:18:14.942Z,99588.59
2018-02-01T12:20:42.806Z,99595.71
2018-02-01T12:23:10.952Z,99591.62
2018-02-01T12:25:38.917Z,99593.55
2018-02-01T12:28:06.768Z,99598.14
2018-02-01T12:30:34.610Z,99593.00
2018-02-01T12:33:02.490Z,99594.80
2018-02-01T12:35:30.280Z,99602.25
2018-02-01T12:37:58.120Z,99599.97
2018-02-01T12:40:25.897Z,99596.12
2018-02-01T12:42:53.743Z,99600.16
2018-02-01T12:45:21.669Z,99596.37
2018-02-01T12:47:49.604Z,99593.77
2018-02-01T12:50:17.427Z,99603.02
2018-02-01T12:52:45.225Z,99601.52
2018-02-01T12:55:13.089Z,99597.00
2018-02-01T12:57:40.965Z,99610.93
2018-02-01T13:00:08.816Z,99615.50
2018-02-01T13:02:36.774Z,99606.55
2018-02-01T13:05:04.604Z,99608.12
2018-02-01T13:07:32.487Z,99620.75
2018-02-01T13:10:00.328Z,99618.81
2018-02-01T13:12:28.184Z,99619.70
2018-02-01T13:14:55.996Z,99612.11
2018-02-01T13:17:23.907Z,99619.26
2018-02-01T13:19:51.720Z,99612.17
2018-02-01T13:22:19.624Z,99611.88
2018-02-01T13:24:47.380Z,99609.97
2018-02-01T13:27:15.217Z,99598.67
2018-02-01T13:29:43.517Z,99602.88
2018-02-01T13:32:11.365Z,99609.47
2018-02-01T13:34:39.202Z,99604.80
2018-02-01T13:37:07.101Z,99609.19
2018-02-01T13:39:34.872Z,99601.07
2018-02-01T13:42:02.738Z,99602.98
2018-02-01T13:44:30.572Z,99593.22
2018-02-01T13:46:58.550Z,99592.02
2018-02-01T13:49:26.508Z,99597.66
2018-02-01T13:51:54.388Z,99590.48
2018-02-01T13:54:22.211Z,99600.27
2018-02-01T13:56:50.072Z,99604.26
2018-02-01T13:59:17.916Z,99606.42
2018-02-01T14:01:45.810Z,99599.27
2018-02-01T14:04:13.568Z,99601.80
2018-02-01T14:06:42.389Z,99601.44
2018-02-01T14:09:10.254Z,99598.48
2018-02-01T14:11:38.236Z,99600.39
2018-02-01T14:14:06.097Z,99603.94
2018-02-01T14:16:33.937Z,99598.89
2018-02-01T14:19:01.846Z,99598.33
2018-02-01T14:21:29.656Z,99598.59
2018-02-01T14:23:57.537Z,99595.86
2018-02-01T14:26:25.298Z,99593.69
2018-02-01T14:28:53.196Z,99596.07
2018-02-01T14:31:21.000Z,99594.22
2018-02-01T14:33:48.874Z,99593.78
2018-02-01T14:36:16.779Z,99595.10
2018-02-01T14:38:44.668Z,99589.73
2018-02-01T14:41:12.522Z,99596.60
2018-02-01T14:43:40.713Z,99597.31
2018-02-01T14:46:08.560Z,99600.83
2018-02-01T14:48:36.416Z,99593.08
2018-02-01T14:51:04.245Z,99592.72
2018-02-01T14:53:32.073Z,99589.31
2018-02-01T14:55:59.950Z,99590.28
2018-02-01T14:58:27.814Z,99585.00
2018-02-01T15:00:55.700Z,99586.65
2018-02-01T15:03:23.552Z,99586.70
2018-02-01T15:05:51.378Z,99597.53
2018-02-01T15:08:19.217Z,99603.98
2018-02-01T15:10:47.160Z,99598.98
2018-02-01T15:13:14.975Z,99597.89
2018-02-01T15:15:42.782Z,99598.36
2018-02-01T15:18:10.621Z,99596.77
2018-02-01T15:20:38.418Z,99598.53
2018-02-01T15:23:06.223Z,99590.72
2018-02-01T15:25:33.968Z,99588.66
2018-02-01T15:28:01.832Z,99594.18
2018-02-01T15:30:29.657Z,99590.86
2018-02-01T15:32:57.503Z,99589.22
2018-02-01T15:35:25.383Z,99589.04
2018-02-01T15:37:53.214Z,99592.81
2018-02-01T15:40:21.100Z,99598.62
2018-02-01T15:42:49.344Z,99598.06
2018-02-01T15:45:17.125Z,99598.33
2018-02-01T15:47:44.993Z,99607.02
2018-02-01T15:50:12.870Z,99603.70
2018-02-01T15:52:40.703Z,99605.13
2018-02-01T15:55:08.459Z,99618.79
2018-02-01T15:57:36.292Z,99607.17
2018-02-01T16:00:04.261Z,99608.74
2018-02-01T16:02:32.115Z,99627.34
2018-02-01T16:04:59.928Z,99622.38
2018-02-01T16:07:27.727Z,99626.86
2018-02-01T16:09:55.599Z,99630.29
2018-02-01T16:12:23.393Z,99636.22
2018-02-01T16:14:51.259Z,99641.73
2018-02-01T16:17:19.062Z,99636.77
2018-02-01T16:19:46.935Z,99638.30
2018-02-01T16:22:14.717Z,99636.46
2018-02-01T16:24:42.597Z,99641.16
2018-02-01T16:27:11.479Z,99629.91
2018-02-01T16:29:39.320Z,99626.50
2018-02-01T16:32:07.100Z,99628.25
2018-02-01T16:34:34.977Z,99629.81
2018-02-01T16:37:02.742Z,99633.79
2018-02-01T16:39:30.572Z,99630.88
2018-02-01T16:41:58.312Z,99632.44
2018-02-01T16:44:26.834Z,99644.98
2018-02-01T16:46:54.743Z,99643.43
2018-02-01T16:49:22.598Z,99636.78
2018-02-01T16:51:50.406Z,99648.86
2018-02-01T16:54:18.229Z,99653.13
2018-02-01T16:56:46.012Z,99655.43
2018-02-01T16:59:13.842Z,99654.84
2018-02-01T17:01:41.671Z,99660.66
2018-02-01T17:04:09.491Z,99664.39
2018-02-01T17:06:37.288Z,99672.75
2018-02-01T17:09:05.220Z,99669.79
2018-02-01T17:11:33.353Z,99666.62
2018-02-01T17:14:01.142Z,99666.78
2018-02-01T17:16:28.965Z,99673.63
2018-02-01T17:18:56.797Z,99674.27
2018-02-01T17:21:24.544Z,99677.12
2018-02-01T17:23:52.396Z,99671.75
2018-02-01T17:26:20.204Z,99674.43
2018-02-01T17:28:48.113Z,99673.41
2018-02-01T17:31:15.972Z,99677.98
2018-02-01T17:33:43.805Z,99681.84
2018-02-01T17:36:11.709Z,99683.63
2018-02-01T17:38:39.565Z,99681.42
2018-02-01T17:41:07.404Z,99681.77
2018-02-01T17:43:35.211Z,99682.04
2018-02-01T17:46:03.049Z,99679.70
2018-02-01T17:48:30.881Z,99676.53
2018-02-01T17:50:58.763Z,99680.97
2018-02-01T17:53:26.557Z,99677.09
2018-02-01T17:55:54.446Z,99678.27
2018-02-01T17:58:22.244Z,99682.48
2018-02-01T18:00:50.100Z,99686.11
2018-02-01T18:03:17.903Z,99687.89
2018-02-01T18:05:45.805Z,99672.55
2018-02-01T18:08:13.648Z,99681.25
2018-02-01T18:10:41.579Z,99682.74
2018-02-01T18:13:09.399Z,99682.61
2018-02-01T18:15:37.291Z,99684.85
2018-02-01T18:18:05.103Z,99689.63
2018-02-01T18:20:32.967Z,99687.95
2018-02-01T18:23:00.758Z,99688.35
2018-02-01T18:25:28.637Z,99689.21
2018-02-01T18:27:56.447Z,99690.09
2018-02-01T18:30:24.326Z,99693.57
2018-02-01T18:32:52.109Z,99692.12
2018-02-01T18:35:20.016Z,99689.20
2018-02-01T18:37:47.891Z,99685.25
2018-02-01T18:40:15.784Z,99685.41
2018-02-01T18:42:43.619Z,99681.43
2018-02-01T18:45:11.461Z,99677.58
2018-02-01T18:47:39.293Z,99669.41
2018-02-01T18:50:07.210Z,99668.17
2018-02-01T18:52:35.034Z,99663.94
2018-02-01T18:55:02.915Z,99663.80
2018-02-01T18:57:30.719Z,99672.13
2018-02-01T18:59:58.566Z,99665.36
2018-02-01T19:02:26.375Z,99666.63
2018-02-01T19:04:54.263Z,99673.67
2018-02-01T19:07:22.040Z,99671.09
2018-02-01T19:09:49.838Z,99669.13
2018-02-01T19:12:17.643Z,99677.63
2018-02-01T19:14:45.480Z,99666.73
2018-02-01T19:17:13.318Z,99665.70
2018-02-01T19:19:41.185Z,99669.62
2018-02-01T19:22:08.968Z,99669.83
2018-02-01T19:24:36.848Z,99667.08
2018-02-01T19:27:04.665Z,99664.46
2018-02-01T19:29:32.458Z,99664.97
2018-02-01T19:32:00.315Z,99670.20
2018-02-01T19:34:28.123Z,99671.23
2018-02-01T19:36:56.039Z,99670.23
2018-02-01T19:39:23.880Z,99667.90
2018-02-01T19:41:51.787Z,99659.11
2018-02-01T19:44:19.599Z,99671.78
2018-02-01T19:46:47.499Z,99673.31
2018-02-01T19:49:15.314Z,99663.31
2018-02-01T19:51:43.122Z,99675.98
2018-02-01T19:54:10.928Z,99678.41
2018-02-01T19:56:38.825Z,99672.25
2018-02-01T19:59:06.648Z,99671.67
2018-02-01T20:01:34.598Z,99669.53
2018-02-01T20:04:02.459Z,99670.63
2018-02-01T20:06:30.350Z,99677.55
2018-02-01T20:08:58.174Z,99672.44
2018-02-01T20:11:26.038Z,99680.57
2018-02-01T20:13:53.800Z,99683.97
2018-02-01T20:16:21.698Z,99687.44
2018-02-01T20:18:49.497Z,99698.20
2018-02-01T20:21:17.368Z,99687.50
2018-02-01T20:23:45.176Z,99682.45
2018-02-01T20:26:13.077Z,99674.39
2018-02-01T20:28:40.896Z,99680.66
2018-02-01T20:31:08.757Z,99681.82
2018-02-01T20:33:36.560Z,99682.03
2018-02-01T20:36:04.396Z,99682.06
2018-02-01T20:38:32.195Z,99687.67
2018-02-01T20:41:00.060Z,99677.02
2018-02-01T20:43:27.872Z,99671.75
2018-02-01T20:45:55.756Z,99677.41
2018-02-01T20:48:23.553Z,99681.48
2018-02-01T20:50:51.379Z,99677.80
2018-02-01T20:53:19.198Z,99686.42
2018-02-01T20:55:47.047Z,99687.20
2018-02-01T20:58:14.882Z,99688.33
2018-02-01T21:00:42.752Z,99700.22
2018-02-01T21:03:10.600Z,99702.98
2018-02-01T21:05:38.436Z,99700.13
2018-02-01T21:08:06.196Z,99703.42
2018-02-01T21:10:34.064Z,99702.33
2018-02-01T21:13:01.851Z,99705.78
2018-02-01T21:15:29.681Z,99708.78
2018-02-01T21:17:57.509Z,99704.44
2018-02-01T21:20:25.331Z,99699.00
2018-02-01T21:22:53.179Z,99699.17
2018-02-01T21:25:20.966Z,99696.64
2018-02-01T21:27:48.843Z,99701.20
2018-02-01T21:30:16.688Z,99702.05
2018-02-01T21:32:44.559Z,99699.91
2018-02-01T21:35:12.380Z,99700.78
2018-02-01T21:37:40.311Z,99703.73
2018-02-01T21:40:08.142Z,99701.14
2018-02-01T21:42:36.046Z,99697.61
2018-02-01T21:45:03.917Z,99704.08
2018-02-01T21:47:32.761Z,99700.94
2018-02-01T21:50:00.583Z,99706.66
2018-02-01T21:52:28.464Z,99707.23
2018-02-01T21:54:56.247Z,99698.70
2018-02-01T21:57:24.119Z,99697.61
2018-02-01T21:59:51.936Z,99698.04
2018-02-01T22:02:19.819Z,99704.12
2018-02-01T22:04:47.584Z,99707.11
2018-02-01T22:07:15.428Z,99704.53
2018-02-01T22:09:43.258Z,99703.34
2018-02-01T22:12:11.089Z,99702.09
2018-02-01T22:14:38.921Z,99714.14
2018-02-01T22:17:06.790Z,99709.89
2018-02-01T22:19:34.601Z,99715.08
2018-02-01T22:22:02.495Z,99717.11
2018-02-01T22:24:30.358Z,99714.09
2018-02-01T22:26:58.296Z,99716.08
2018-02-01T22:29:26.089Z,99712.13
2018-02-01T22:31:53.950Z,99707.20
2018-02-01T22:34:21.754Z,99704.98
2018-02-01T22:36:49.665Z,99706.81
2018-02-01T22:39:17.496Z,99708.33
2018-02-01T22:41:45.385Z,99715.97
2018-02-01T22:44:13.135Z,99717.81
2018-02-01T22:46:41.001Z,99723.56
2018-02-01T22:49:08.829Z,99728.03
2018-02-01T22:51:36.652Z,99723.50
2018-02-01T22:54:04.469Z,99726.28
2018-02-01T22:56:32.286Z,99737.77
2018-02-01T22:59:00.134Z,99742.72
2018-02-01T23:01:27.952Z,99736.80
2018-02-01T23:03:55.797Z,99747.50
2018-02-01T23:06:23.595Z,99745.51
2018-02-01T23:08:51.476Z,99748.16
2018-02-01T23:11:19.261Z,99747.56
2018-02-01T23:13:47.123Z,99741.31
2018-02-01T23:16:14.904Z,99736.98
2018-02-01T23:18:42.739Z,99726.87
2018-02-01T23:21:10.545Z,99723.91
2018-02-01T23:23:38.360Z,99722.91
2018-02-01T23:26:06.183Z,99724.27
2018-02-01T23:28:33.989Z,99722.94
2018-02-01T23:31:01.845Z,99738.20
2018-02-01T23:33:29.692Z,99732.02
2018-02-01T23:35:57.534Z,99733.93
2018-02-01T23:38:25.385Z,99730.44
2018-02-01T23:40:53.159Z,99722.83
2018-02-01T23:43:20.996Z,99730.44
2018-02-01T23:45:48.798Z,99731.36
2018-02-01T23:48:16.635Z,99731.44
2018-02-01T23:50:44.425Z,99730.03
2018-02-01T23:53:12.263Z,99732.34
2018-02-01T23:55:40.064Z,99726.91
2018-02-01T23:58:07.920Z,99728.77
